Terminal Aerodrome Forecast
Issued by NWS

Home | Current Version | Previous Version | Text Only | Print | Product List | Glossary On
Versions: 1 2 3 4 5 6 7 8 9 10 11 12 13 14 15 16 17 18 19 20 21 22
429
FTUS45 KTFX 260537
TAFHVR
TAF
KHVR 260537Z 2606/2706 25011KT P6SM VCSH SCT050 OVC080
      WS020/29025KT
     FM260900 25011KT 6SM -SHSN SCT020 OVC035 WS020/29025KT
      TEMPO 2610/2613 2SM -SHSN BR BKN015
     FM261300 34011KT 6SM -SN SCT015 OVC025
      TEMPO 2613/2616 3SM -SHSN BR BKN015
     FM262100 03008KT P6SM VCSH SCT025 OVC050 PROB30 2702/2706 4SM
      -SN BR BKN025=

USA.gov is the U.S. government's official web portal to all federal, state and local government web resources and services.